createdAt,value
2022-12-05T00:00:55.749Z,0.55
2022-12-05T00:03:22.629Z,0.35
2022-12-05T00:05:49.246Z,0.62
2022-12-05T00:08:15.688Z,0.68
2022-12-05T00:10:42.937Z,0.68
2022-12-05T00:13:09.415Z,0.60
2022-12-05T00:15:39.869Z,0.66
2022-12-05T00:18:07.450Z,0.46
2022-12-05T00:20:34.170Z,0.69
2022-12-05T00:23:00.832Z,0.88
2022-12-05T00:25:27.801Z,0.71
2022-12-05T00:27:54.131Z,0.69
2022-12-05T00:30:20.650Z,0.35
2022-12-05T00:32:47.402Z,0.17
2022-12-05T00:35:14.046Z,0.12
2022-12-05T00:37:40.359Z,0.08
2022-12-05T00:40:07.337Z,0.04
2022-12-05T00:42:34.031Z,0.02
2022-12-05T00:45:00.361Z,0.08
2022-12-05T00:47:26.706Z,0.11
2022-12-05T00:49:53.394Z,0.23
2022-12-05T00:52:19.762Z,0.30
2022-12-05T00:54:46.209Z,0.21
2022-12-05T00:57:13.074Z,0.24
2022-12-05T00:59:40.303Z,0.06
2022-12-05T01:02:06.627Z,-0.04
2022-12-05T01:04:33.355Z,-0.03
2022-12-05T01:06:59.783Z,-0.02
2022-12-05T01:09:27.715Z,-0.02
2022-12-05T01:11:54.085Z,-0.06
2022-12-05T01:14:22.770Z,-0.01
2022-12-05T01:16:51.253Z,-0.09
2022-12-05T01:19:22.060Z,-0.02
2022-12-05T01:21:48.924Z,-0.01
2022-12-05T01:24:17.404Z,-0.02
2022-12-05T01:26:44.962Z,-0.01
2022-12-05T01:29:16.871Z,0.04
2022-12-05T01:31:43.621Z,0.05
2022-12-05T01:34:13.438Z,0.06
2022-12-05T01:36:40.352Z,0.00
2022-12-05T01:39:08.604Z,0.00
2022-12-05T01:41:38.316Z,-0.01
2022-12-05T01:44:08.108Z,0.05
2022-12-05T01:46:38.301Z,0.06
2022-12-05T01:49:15.310Z,0.03
2022-12-05T01:51:45.951Z,-0.06
2022-12-05T01:54:13.513Z,-0.09
2022-12-05T01:56:42.276Z,-0.15
2022-12-05T01:59:11.643Z,-0.11
2022-12-05T02:01:38.743Z,-0.05
2022-12-05T02:04:05.922Z,-0.06
2022-12-05T02:06:33.448Z,-0.07
2022-12-05T02:09:00.422Z,-0.09
2022-12-05T02:11:29.784Z,-0.16
2022-12-05T02:13:58.774Z,-0.13
2022-12-05T02:16:47.547Z,-0.13
2022-12-05T02:19:50.341Z,-0.12
2022-12-05T02:22:44.837Z,-0.10
2022-12-05T02:25:33.036Z,-0.15
2022-12-05T02:28:47.632Z,-0.10
2022-12-05T02:31:19.723Z,-0.09
2022-12-05T02:33:50.793Z,-0.05
2022-12-05T02:36:33.443Z,-0.06
2022-12-05T02:39:06.482Z,-0.08
2022-12-05T02:41:55.253Z,-0.10
2022-12-05T02:44:46.142Z,-0.21
2022-12-05T02:47:18.783Z,-0.21
2022-12-05T02:49:45.202Z,-0.16
2022-12-05T02:52:15.523Z,-0.24
2022-12-05T02:54:47.178Z,-0.24
2022-12-05T02:57:15.358Z,-0.22
2022-12-05T02:59:41.683Z,-0.26
2022-12-05T03:02:22.783Z,-0.27
2022-12-05T03:04:49.439Z,-0.22
2022-12-05T03:07:17.598Z,-0.25
2022-12-05T03:09:49.853Z,-0.22
2022-12-05T03:12:31.766Z,-0.26
2022-12-05T03:15:22.091Z,-0.23
2022-12-05T03:18:07.061Z,-0.10
2022-12-05T03:20:36.100Z,-0.01
2022-12-05T03:23:18.356Z,-0.08
2022-12-05T03:25:54.535Z,-0.07
2022-12-05T03:28:37.836Z,-0.14
2022-12-05T03:31:11.029Z,-0.10
2022-12-05T03:33:45.426Z,-0.10
2022-12-05T03:36:17.197Z,-0.11
2022-12-05T03:38:57.050Z,0.03
2022-12-05T03:41:38.534Z,0.19
2022-12-05T03:44:14.632Z,0.06
2022-12-05T03:46:46.033Z,0.05
2022-12-05T03:49:40.543Z,0.04
2022-12-05T03:52:13.198Z,-0.01
2022-12-05T03:54:51.550Z,0.03
2022-12-05T03:57:21.319Z,0.04
2022-12-05T03:59:55.387Z,-0.03
2022-12-05T04:02:32.347Z,0.01
2022-12-05T04:05:04.554Z,0.08
2022-12-05T04:07:35.938Z,0.07
2022-12-05T04:10:10.530Z,0.10
2022-12-05T04:12:41.459Z,0.12
2022-12-05T04:15:17.430Z,0.12
2022-12-05T04:17:54.051Z,0.20
2022-12-05T04:20:41.782Z,0.18
2022-12-05T04:23:09.369Z,0.35
2022-12-05T04:26:09.130Z,0.42
2022-12-05T04:28:49.299Z,0.56
2022-12-05T04:31:38.818Z,0.49
2022-12-05T04:34:10.059Z,0.38
2022-12-05T04:36:47.053Z,0.34
2022-12-05T04:39:23.474Z,0.27
2022-12-05T04:41:58.094Z,0.33
2022-12-05T04:44:32.950Z,0.43
2022-12-05T04:47:04.321Z,0.41
2022-12-05T04:49:33.137Z,0.58
2022-12-05T04:52:04.815Z,0.73
2022-12-05T04:54:38.456Z,0.64
2022-12-05T04:57:22.591Z,0.68
2022-12-05T04:59:49.198Z,0.55
2022-12-05T05:02:23.269Z,0.57
2022-12-05T05:04:52.578Z,0.51
2022-12-05T05:07:19.667Z,0.43
2022-12-05T05:09:46.341Z,0.47
2022-12-05T05:12:18.796Z,0.58
2022-12-05T05:14:45.633Z,0.64
2022-12-05T05:17:11.953Z,0.67
2022-12-05T05:19:38.778Z,0.67
2022-12-05T05:22:05.257Z,0.67
2022-12-05T05:24:31.590Z,0.77
2022-12-05T05:26:58.451Z,0.70
2022-12-05T05:29:24.798Z,0.67
2022-12-05T05:31:51.159Z,0.72
2022-12-05T05:34:17.868Z,0.61
2022-12-05T05:36:44.239Z,0.72
2022-12-05T05:39:15.027Z,0.73
2022-12-05T05:41:41.967Z,0.67
2022-12-05T05:44:08.306Z,0.59
2022-12-05T05:46:36.410Z,0.61
2022-12-05T05:49:04.002Z,0.61
2022-12-05T05:51:30.509Z,0.68
2022-12-05T05:53:58.462Z,0.61
2022-12-05T05:56:25.386Z,0.66
2022-12-05T05:59:00.477Z,0.68
2022-12-05T06:01:27.505Z,0.67
2022-12-05T06:03:54.488Z,0.71
2022-12-05T06:06:21.240Z,0.72
2022-12-05T06:08:48.071Z,0.73
2022-12-05T06:11:25.330Z,0.77
2022-12-05T06:13:55.012Z,0.75
2022-12-05T06:16:21.908Z,0.76
2022-12-05T06:18:49.840Z,0.89
2022-12-05T06:21:17.240Z,0.87
2022-12-05T06:23:44.106Z,0.79
2022-12-05T06:26:13.226Z,0.83
2022-12-05T06:28:39.950Z,0.89
2022-12-05T06:31:12.072Z,0.91
2022-12-05T06:33:38.924Z,0.83
2022-12-05T06:36:18.002Z,0.88
2022-12-05T06:38:44.337Z,0.82
2022-12-05T06:41:14.376Z,0.80
2022-12-05T06:43:41.886Z,0.82
2022-12-05T06:46:10.386Z,0.84
2022-12-05T06:48:36.860Z,0.93
2022-12-05T06:51:04.399Z,0.93
2022-12-05T06:53:30.793Z,0.98
2022-12-05T06:56:02.738Z,1.07
2022-12-05T06:58:30.335Z,1.05
2022-12-05T07:01:15.909Z,1.04
2022-12-05T07:03:44.025Z,0.97
2022-12-05T07:06:11.126Z,0.97
2022-12-05T07:08:37.821Z,0.96
2022-12-05T07:11:04.317Z,0.97
2022-12-05T07:13:30.683Z,1.00
2022-12-05T07:15:58.896Z,0.96
2022-12-05T07:18:26.378Z,1.00
2022-12-05T07:21:17.067Z,0.97
2022-12-05T07:23:45.790Z,1.02
2022-12-05T07:26:15.465Z,0.94
2022-12-05T07:28:41.906Z,0.99
2022-12-05T07:31:11.323Z,1.03
2022-12-05T07:33:38.345Z,1.06
2022-12-05T07:36:08.937Z,1.20
2022-12-05T07:38:35.686Z,1.13
2022-12-05T07:41:13.583Z,1.14
2022-12-05T07:43:41.543Z,1.18
2022-12-05T07:46:11.781Z,1.20
2022-12-05T07:48:39.272Z,1.39
2022-12-05T07:51:07.356Z,1.45
2022-12-05T07:53:34.863Z,1.40
2022-12-05T07:56:03.181Z,1.68
2022-12-05T07:58:30.554Z,1.40
2022-12-05T08:00:58.575Z,1.73
2022-12-05T08:03:25.009Z,1.63
2022-12-05T08:05:51.333Z,1.68
2022-12-05T08:08:18.142Z,1.49
2022-12-05T08:10:44.550Z,1.39
2022-12-05T08:13:10.869Z,1.46
2022-12-05T08:15:37.639Z,1.52
2022-12-05T08:18:04.000Z,1.64
2022-12-05T08:20:30.542Z,1.51
2022-12-05T08:22:58.339Z,1.60
2022-12-05T08:25:24.705Z,1.57
2022-12-05T08:27:51.049Z,1.61
2022-12-05T08:30:18.269Z,1.61
2022-12-05T08:32:44.589Z,1.67
2022-12-05T08:35:10.906Z,1.82
2022-12-05T08:37:37.563Z,2.12
2022-12-05T08:40:04.542Z,2.54
2022-12-05T08:42:31.759Z,2.58
2022-12-05T08:44:58.523Z,2.57
2022-12-05T08:47:24.966Z,2.69
2022-12-05T08:49:51.789Z,2.66
2022-12-05T08:52:18.173Z,2.47
2022-12-05T08:54:44.938Z,2.11
2022-12-05T08:57:12.183Z,2.30
2022-12-05T08:59:38.500Z,2.25
2022-12-05T09:02:05.001Z,2.22
2022-12-05T09:04:31.901Z,2.09
2022-12-05T09:07:01.174Z,2.13
2022-12-05T09:09:27.504Z,2.21
2022-12-05T09:11:54.327Z,2.28
2022-12-05T09:14:20.741Z,2.54
2022-12-05T09:16:47.778Z,2.29
2022-12-05T09:19:17.794Z,2.23
2022-12-05T09:21:44.661Z,2.29
2022-12-05T09:24:13.247Z,2.65
2022-12-05T09:26:40.472Z,2.85
2022-12-05T09:29:08.977Z,2.70
2022-12-05T09:31:43.335Z,2.77
2022-12-05T09:34:09.857Z,2.79
2022-12-05T09:36:36.645Z,2.75
2022-12-05T09:39:05.816Z,2.84
2022-12-05T09:42:06.172Z,3.06
2022-12-05T09:44:58.860Z,3.16
2022-12-05T09:47:44.902Z,2.83
2022-12-05T09:50:34.944Z,3.09
2022-12-05T09:53:20.296Z,3.27
2022-12-05T09:56:06.791Z,2.94
2022-12-05T09:58:40.170Z,3.35
2022-12-05T10:01:27.996Z,3.37
2022-12-05T10:04:13.626Z,3.23
2022-12-05T10:06:46.258Z,3.19
2022-12-05T10:09:54.213Z,3.08
2022-12-05T10:12:48.758Z,3.17
2022-12-05T10:15:19.526Z,3.38
2022-12-05T10:17:52.553Z,3.64
2022-12-05T10:20:25.028Z,3.86
2022-12-05T10:22:59.149Z,3.92
2022-12-05T10:25:27.518Z,3.98
2022-12-05T10:28:00.401Z,4.09
2022-12-05T10:30:34.005Z,4.10
2022-12-05T10:33:07.953Z,4.16
2022-12-05T10:35:42.105Z,4.04
2022-12-05T10:38:21.320Z,4.10
2022-12-05T10:40:53.341Z,4.16
2022-12-05T10:43:28.831Z,4.43
2022-12-05T10:45:56.806Z,3.76
2022-12-05T10:48:24.286Z,3.64
2022-12-05T10:50:56.512Z,3.42
2022-12-05T10:53:38.178Z,3.34
2022-12-05T10:56:42.846Z,3.23
2022-12-05T10:59:12.720Z,3.03
2022-12-05T11:01:50.137Z,2.87
2022-12-05T11:04:25.950Z,2.98
2022-12-05T11:07:02.130Z,3.05
2022-12-05T11:09:33.735Z,3.41
2022-12-05T11:12:06.157Z,3.84
2022-12-05T11:14:34.847Z,3.59
2022-12-05T11:17:02.813Z,3.52
2022-12-05T11:19:32.818Z,3.41
2022-12-05T11:22:00.264Z,3.42
2022-12-05T11:24:32.505Z,3.63
2022-12-05T11:27:19.331Z,3.33
2022-12-05T11:29:56.436Z,3.16
2022-12-05T11:32:26.909Z,3.14
2022-12-05T11:35:06.983Z,3.14
2022-12-05T11:37:56.613Z,3.12
2022-12-05T11:40:38.585Z,3.13
2022-12-05T11:43:17.411Z,3.15
2022-12-05T11:46:11.923Z,3.20
2022-12-05T11:49:04.235Z,3.18
2022-12-05T11:51:38.564Z,3.27
2022-12-05T11:57:53.861Z,3.67
2022-12-05T12:00:27.903Z,3.45
2022-12-05T12:03:03.230Z,3.38
2022-12-05T12:06:15.508Z,3.41
2022-12-05T12:09:02.296Z,3.46
2022-12-05T12:11:38.197Z,3.48
2022-12-05T12:14:25.473Z,3.39
2022-12-05T12:17:21.198Z,3.37
2022-12-05T12:20:19.957Z,3.43
2022-12-05T12:23:07.842Z,3.35
2022-12-05T12:25:54.281Z,3.43
2022-12-05T12:28:52.266Z,3.47
2022-12-05T12:31:34.783Z,3.32
2022-12-05T12:34:27.886Z,3.38
2022-12-05T12:37:03.162Z,3.46
2022-12-05T12:39:45.340Z,3.33
2022-12-05T12:42:17.426Z,3.43
2022-12-05T12:44:47.255Z,3.40
2022-12-05T12:47:43.503Z,3.49
2022-12-05T12:50:24.503Z,3.69
2022-12-05T12:53:00.965Z,3.63
2022-12-05T12:55:51.365Z,3.57
2022-12-05T12:58:46.866Z,3.84
2022-12-05T13:01:26.397Z,3.88
2022-12-05T13:04:02.589Z,3.81
2022-12-05T13:06:45.003Z,3.90
2022-12-05T13:09:51.420Z,4.07
2022-12-05T13:12:25.002Z,4.33
2022-12-05T13:15:07.479Z,4.45
2022-12-05T13:17:34.686Z,4.52
2022-12-05T13:20:01.395Z,4.59
2022-12-05T13:22:29.153Z,4.17
2022-12-05T13:24:56.500Z,4.13
2022-12-05T13:27:27.466Z,4.03
2022-12-05T13:30:00.009Z,4.03
2022-12-05T13:32:40.532Z,4.13
2022-12-05T13:35:06.795Z,4.07
2022-12-05T13:37:53.804Z,3.85
2022-12-05T13:40:46.662Z,3.92
2022-12-05T13:43:16.938Z,3.71
2022-12-05T13:46:00.438Z,3.86
2022-12-05T13:48:30.160Z,3.85
2022-12-05T13:50:57.983Z,3.91
2022-12-05T13:53:37.748Z,4.07
2022-12-05T13:56:07.323Z,3.96
2022-12-05T13:58:45.304Z,4.16
2022-12-05T14:01:26.973Z,4.29
2022-12-05T14:04:00.846Z,3.96
2022-12-05T14:06:39.335Z,3.71
2022-12-05T14:09:12.151Z,3.52
2022-12-05T14:11:38.523Z,3.47
2022-12-05T14:14:08.175Z,3.53
2022-12-05T14:16:35.145Z,3.38
2022-12-05T14:19:16.670Z,3.38
2022-12-05T14:22:06.361Z,3.30
2022-12-05T14:24:43.845Z,3.19
2022-12-05T14:27:26.998Z,3.17
2022-12-05T14:30:13.715Z,3.14
2022-12-05T14:32:42.499Z,3.21
2022-12-05T14:35:23.834Z,3.09
2022-12-05T14:38:04.793Z,3.09
2022-12-05T14:40:40.771Z,3.02
2022-12-05T14:43:22.098Z,3.03
2022-12-05T14:45:52.008Z,3.04
2022-12-05T14:48:27.135Z,2.99
2022-12-05T14:50:56.551Z,2.94
2022-12-05T14:53:30.112Z,2.95
2022-12-05T14:56:05.663Z,2.88
2022-12-05T14:58:55.630Z,2.83
2022-12-05T15:01:41.029Z,2.72
2022-12-05T15:04:19.363Z,2.70
2022-12-05T15:06:59.124Z,2.69
2022-12-05T15:09:37.970Z,2.63
2022-12-05T15:12:12.082Z,2.78
2022-12-05T15:14:52.569Z,2.62
2022-12-05T15:17:26.951Z,2.55
2022-12-05T15:20:03.953Z,2.59
2022-12-05T15:22:35.321Z,2.59
2022-12-05T15:25:24.109Z,2.56
2022-12-05T15:28:06.587Z,2.37
2022-12-05T15:30:39.569Z,2.29
2022-12-05T15:33:12.760Z,2.11
2022-12-05T15:35:40.621Z,1.97
2022-12-05T15:38:27.770Z,1.92
2022-12-05T15:40:54.352Z,1.70
2022-12-05T15:43:34.228Z,1.54
2022-12-05T15:46:27.420Z,1.40
2022-12-05T15:48:56.854Z,1.35
2022-12-05T15:51:35.676Z,1.28
2022-12-05T15:54:08.714Z,1.23
2022-12-05T15:56:44.565Z,1.13
2022-12-05T15:59:33.594Z,1.18
2022-12-05T16:02:22.956Z,1.10
2022-12-05T16:05:00.417Z,1.15
2022-12-05T16:07:30.031Z,1.14
2022-12-05T16:09:59.112Z,1.07
2022-12-05T16:12:35.338Z,1.07
2022-12-05T16:15:08.264Z,1.01
2022-12-05T16:17:42.808Z,1.01
2022-12-05T16:20:12.066Z,0.95
2022-12-05T16:22:45.462Z,0.92
2022-12-05T16:25:16.038Z,0.93
2022-12-05T16:27:43.885Z,0.92
2022-12-05T16:30:13.165Z,0.88
2022-12-05T16:32:41.429Z,0.83
2022-12-05T16:35:36.066Z,0.82
2022-12-05T16:38:25.993Z,0.75
2022-12-05T16:41:00.894Z,0.84
2022-12-05T16:43:33.574Z,0.79
2022-12-05T16:46:12.931Z,0.93
2022-12-05T16:48:42.179Z,0.88
2022-12-05T16:51:12.579Z,0.91
2022-12-05T16:53:40.697Z,0.84
2022-12-05T16:56:13.649Z,0.90
2022-12-05T16:58:39.990Z,0.90
2022-12-05T17:01:14.860Z,0.84
2022-12-05T17:03:41.415Z,0.79
2022-12-05T17:06:07.781Z,0.72
2022-12-05T17:08:34.569Z,0.66
2022-12-05T17:11:03.425Z,0.66
2022-12-05T17:13:31.958Z,0.66
2022-12-05T17:16:00.789Z,0.82
2022-12-05T17:18:31.486Z,0.90
2022-12-05T17:21:01.399Z,0.98
2022-12-05T17:23:27.784Z,1.13
2022-12-05T17:25:59.330Z,1.15
2022-12-05T17:28:25.670Z,1.25
2022-12-05T17:30:52.076Z,1.32
2022-12-05T17:33:19.914Z,1.38
2022-12-05T17:35:46.805Z,1.43
2022-12-05T17:38:13.289Z,1.51
2022-12-05T17:40:40.893Z,1.56
2022-12-05T17:43:07.718Z,1.73
2022-12-05T17:45:34.515Z,1.76
2022-12-05T17:48:00.879Z,1.73
2022-12-05T17:50:28.182Z,1.94
2022-12-05T17:52:56.745Z,1.94
2022-12-05T17:55:28.239Z,1.92
2022-12-05T17:57:55.544Z,1.86
2022-12-05T18:00:23.518Z,1.78
2022-12-05T18:02:51.287Z,1.84
2022-12-05T18:05:18.363Z,1.78
2022-12-05T18:07:45.593Z,1.72
2022-12-05T18:10:15.863Z,1.80
2022-12-05T18:12:42.425Z,1.92
2022-12-05T18:15:09.413Z,1.88
2022-12-05T18:17:35.845Z,1.85
2022-12-05T18:20:02.450Z,1.90
2022-12-05T18:22:28.800Z,1.86
2022-12-05T18:24:57.378Z,1.91
2022-12-05T18:27:24.666Z,2.03
2022-12-05T18:29:51.533Z,2.02
2022-12-05T18:32:19.653Z,2.04
2022-12-05T18:34:46.552Z,2.00
2022-12-05T18:37:13.534Z,1.96
2022-12-05T18:39:39.958Z,1.91
2022-12-05T18:42:11.721Z,1.87
2022-12-05T18:44:41.549Z,1.85
2022-12-05T18:47:08.029Z,1.76
2022-12-05T18:49:34.435Z,1.72
2022-12-05T18:52:01.118Z,1.75
2022-12-05T18:54:27.470Z,1.66
2022-12-05T18:56:54.321Z,1.66
2022-12-05T18:59:22.088Z,1.67
2022-12-05T19:01:48.647Z,1.78
2022-12-05T19:04:17.770Z,1.76
2022-12-05T19:06:55.625Z,1.81
2022-12-05T19:09:25.295Z,1.95
2022-12-05T19:11:58.120Z,2.06
2022-12-05T19:14:26.824Z,2.16
2022-12-05T19:16:59.868Z,2.04
2022-12-05T19:19:27.370Z,2.06
2022-12-05T19:21:53.836Z,1.95
2022-12-05T19:24:20.318Z,1.94
2022-12-05T19:26:50.674Z,1.94
2022-12-05T19:29:17.383Z,2.00
2022-12-05T19:31:44.725Z,1.95
2022-12-05T19:34:11.670Z,1.91
2022-12-05T19:36:41.101Z,1.92
2022-12-05T19:39:11.907Z,1.72
2022-12-05T19:41:38.296Z,1.51
2022-12-05T19:44:05.181Z,1.40
2022-12-05T19:46:33.023Z,1.36
2022-12-05T19:49:02.416Z,1.42
2022-12-05T19:51:29.547Z,1.43
2022-12-05T19:53:56.275Z,1.24
2022-12-05T19:56:25.483Z,1.05
2022-12-05T19:58:54.311Z,1.02
2022-12-05T20:01:23.482Z,0.91
2022-12-05T20:03:55.341Z,0.74
2022-12-05T20:06:22.776Z,0.69
2022-12-05T20:08:52.230Z,0.73
2022-12-05T20:11:21.530Z,0.72
2022-12-05T20:13:48.416Z,0.70
2022-12-05T20:16:19.062Z,0.73
2022-12-05T20:18:46.320Z,0.63
2022-12-05T20:21:14.861Z,0.58
2022-12-05T20:23:41.613Z,0.66
2022-12-05T20:26:16.588Z,0.71
2022-12-05T20:28:43.129Z,0.65
2022-12-05T20:31:21.192Z,0.49
2022-12-05T20:33:51.006Z,0.39
2022-12-05T20:36:20.077Z,0.33
2022-12-05T20:38:47.338Z,0.27
2022-12-05T20:41:18.118Z,0.24
2022-12-05T20:43:46.361Z,0.19
2022-12-05T20:46:18.918Z,0.15
2022-12-05T20:48:46.676Z,0.17
2022-12-05T20:51:16.196Z,0.19
2022-12-05T20:53:44.341Z,0.20
2022-12-05T20:56:22.765Z,0.15
2022-12-05T20:58:51.858Z,0.11
2022-12-05T21:01:20.208Z,0.09
2022-12-05T21:03:49.621Z,0.07
2022-12-05T21:06:19.090Z,0.07
2022-12-05T21:08:46.287Z,0.02
2022-12-05T21:11:13.572Z,-0.10
2022-12-05T21:13:40.333Z,-0.11
2022-12-05T21:16:10.366Z,-0.09
2022-12-05T21:18:37.299Z,-0.19
2022-12-05T21:21:11.514Z,-0.32
2022-12-05T21:23:37.842Z,-0.35
2022-12-05T21:26:08.230Z,-0.37
2022-12-05T21:28:34.998Z,-0.36
2022-12-05T21:31:13.938Z,-0.30
2022-12-05T21:33:41.608Z,-0.37
2022-12-05T21:36:09.692Z,-0.66
2022-12-05T21:38:36.102Z,-0.60
2022-12-05T21:41:04.079Z,-0.34
2022-12-05T21:43:31.285Z,-0.24
2022-12-05T21:45:57.922Z,-0.32
2022-12-05T21:48:25.083Z,-0.41
2022-12-05T21:50:52.645Z,-0.35
2022-12-05T21:53:19.852Z,-0.33
2022-12-05T21:55:46.223Z,-0.35
2022-12-05T21:58:13.806Z,-0.34
2022-12-05T22:00:40.345Z,-0.29
2022-12-05T22:03:07.350Z,-0.28
2022-12-05T22:05:34.101Z,-0.24
2022-12-05T22:08:03.565Z,-0.28
2022-12-05T22:10:34.849Z,-0.23
2022-12-05T22:13:01.168Z,-0.21
2022-12-05T22:15:27.518Z,-0.31
2022-12-05T22:17:54.348Z,-0.41
2022-12-05T22:20:20.701Z,-0.47
2022-12-05T22:22:47.090Z,-0.50
2022-12-05T22:25:13.895Z,-0.50
2022-12-05T22:27:40.288Z,-0.50
2022-12-05T22:30:07.327Z,-0.49
2022-12-05T22:32:34.189Z,-0.53
2022-12-05T22:35:03.718Z,-0.66
2022-12-05T22:37:30.479Z,-0.77
2022-12-05T22:39:57.482Z,-0.81
2022-12-05T22:42:26.367Z,-0.70
2022-12-05T22:44:52.674Z,-0.73
2022-12-05T22:47:19.388Z,-0.72
2022-12-05T22:49:45.718Z,-0.68
2022-12-05T22:52:12.026Z,-0.71
2022-12-05T22:54:39.475Z,-0.70
2022-12-05T22:57:05.818Z,-0.71
2022-12-05T22:59:32.456Z,-0.69
2022-12-05T23:01:59.184Z,-0.65
2022-12-05T23:04:25.638Z,-0.57
2022-12-05T23:06:52.093Z,-0.51
2022-12-05T23:09:18.788Z,-0.53
2022-12-05T23:11:45.109Z,-0.36
2022-12-05T23:14:11.638Z,-0.30
2022-12-05T23:16:38.507Z,-0.27
2022-12-05T23:19:05.800Z,-0.24
2022-12-05T23:21:40.096Z,-0.13
2022-12-05T23:24:09.731Z,0.04
2022-12-05T23:26:40.530Z,0.16
2022-12-05T23:29:07.085Z,0.02
2022-12-05T23:31:34.478Z,-0.07
2022-12-05T23:34:03.639Z,0.02
2022-12-05T23:36:31.990Z,0.01
2022-12-05T23:38:58.367Z,0.03
2022-12-05T23:41:26.366Z,-0.07
2022-12-05T23:43:53.604Z,-0.14
2022-12-05T23:46:22.704Z,-0.08
2022-12-05T23:48:49.163Z,-0.07
2022-12-05T23:51:17.987Z,-0.13
2022-12-05T23:53:45.957Z,-0.14
2022-12-05T23:56:18.570Z,-0.01
2022-12-05T23:58:45.986Z,0.15
